createdAt,value
2018-02-27T00:00:16.519Z,98121.05
2018-02-27T00:00:48.149Z,98122.73
2018-02-27T00:01:19.830Z,98126.57
2018-02-27T00:01:51.459Z,98127.84
2018-02-27T00:02:23.094Z,98125.20
2018-02-27T00:02:54.726Z,98122.17
2018-02-27T00:03:26.350Z,98120.94
2018-02-27T00:03:57.978Z,98122.16
2018-02-27T00:04:29.606Z,98125.79
2018-02-27T00:05:01.230Z,98125.33
2018-02-27T00:05:32.866Z,98125.73
2018-02-27T00:06:04.490Z,98121.85
2018-02-27T00:06:36.153Z,98120.06
2018-02-27T00:07:07.773Z,98123.41
2018-02-27T00:07:39.402Z,98113.20
2018-02-27T00:08:11.026Z,98117.87
2018-02-27T00:08:42.702Z,98114.91
2018-02-27T00:09:14.326Z,98121.64
2018-02-27T00:09:45.954Z,98123.72
2018-02-27T00:10:17.589Z,98119.84
2018-02-27T00:10:49.217Z,98118.94
2018-02-27T00:11:20.841Z,98115.10
2018-02-27T00:11:52.471Z,98109.89
2018-02-27T00:12:24.093Z,98114.98
2018-02-27T00:12:55.730Z,98111.53
2018-02-27T00:13:27.358Z,98111.47
2018-02-27T00:13:59.030Z,98107.59
2018-02-27T00:14:30.654Z,98116.58
2018-02-27T00:15:02.278Z,98110.19
2018-02-27T00:15:33.905Z,98116.58
2018-02-27T00:16:05.529Z,98109.45
2018-02-27T00:16:37.156Z,98109.52
2018-02-27T00:17:08.786Z,98114.13
2018-02-27T00:17:40.409Z,98113.70
2018-02-27T00:18:12.033Z,98110.27
2018-02-27T00:18:43.659Z,98105.20
2018-02-27T00:19:15.330Z,98107.75
2018-02-27T00:19:46.962Z,98109.94
2018-02-27T00:20:18.589Z,98106.91
2018-02-27T00:20:50.213Z,98107.80
2018-02-27T00:21:21.846Z,98112.55
2018-02-27T00:21:53.470Z,98115.05
2018-02-27T00:22:25.113Z,98111.28
2018-02-27T00:22:56.762Z,98112.18
2018-02-27T00:23:28.427Z,98115.59
2018-02-27T00:24:00.058Z,98109.21
2018-02-27T00:24:31.734Z,98109.56
2018-02-27T00:25:03.362Z,98117.67
2018-02-27T00:25:34.993Z,98113.02
2018-02-27T00:26:06.617Z,98116.00
2018-02-27T00:26:38.247Z,98108.77
2018-02-27T00:27:09.879Z,98109.67
2018-02-27T00:27:41.514Z,98112.23
2018-02-27T00:28:13.137Z,98116.13
2018-02-27T00:28:44.762Z,98112.33
2018-02-27T00:29:16.386Z,98113.63
2018-02-27T00:29:48.074Z,98117.13
2018-02-27T00:30:19.700Z,98117.50
2018-02-27T00:30:51.325Z,98111.64
2018-02-27T00:31:22.946Z,98119.31
2018-02-27T00:31:54.570Z,98115.95
2018-02-27T00:32:26.194Z,98112.19
2018-02-27T00:32:57.826Z,98121.16
2018-02-27T00:33:29.455Z,98118.61
2018-02-27T00:34:01.078Z,98116.55
2018-02-27T00:34:32.702Z,98115.69
2018-02-27T00:35:04.322Z,98115.27
2018-02-27T00:35:35.945Z,98112.34
2018-02-27T00:36:07.578Z,98107.76
2018-02-27T00:36:39.209Z,98112.39
2018-02-27T00:37:10.838Z,98121.80
2018-02-27T00:37:42.470Z,98115.41
2018-02-27T00:38:14.098Z,98120.19
2018-02-27T00:38:45.721Z,98121.05
2018-02-27T00:39:17.350Z,98118.11
2018-02-27T00:39:49.018Z,98121.95
2018-02-27T00:40:20.650Z,98117.31
2018-02-27T00:40:52.278Z,98121.61
2018-02-27T00:41:23.906Z,98117.41
2018-02-27T00:41:55.537Z,98119.16
2018-02-27T00:42:27.170Z,98116.19
2018-02-27T00:42:58.798Z,98125.11
2018-02-27T00:43:30.430Z,98117.04
2018-02-27T00:44:02.060Z,98118.75
2018-02-27T00:44:33.687Z,98120.03
2018-02-27T00:45:05.355Z,98116.67
2018-02-27T00:45:37.022Z,98117.05
2018-02-27T00:46:08.650Z,98120.03
2018-02-27T00:46:40.278Z,98116.20
2018-02-27T00:47:11.902Z,98119.22
2018-02-27T00:47:43.530Z,98120.55
2018-02-27T00:48:15.154Z,98121.39
2018-02-27T00:48:46.778Z,98115.44
2018-02-27T00:49:18.401Z,98115.95
2018-02-27T00:49:50.023Z,98117.63
2018-02-27T00:50:21.694Z,98118.09
2018-02-27T00:50:53.318Z,98119.88
2018-02-27T00:51:24.947Z,98107.61
2018-02-27T00:51:56.575Z,98116.11
2018-02-27T00:52:28.202Z,98119.94
2018-02-27T00:52:59.833Z,98112.36
2018-02-27T00:53:31.462Z,98107.73
2018-02-27T00:54:03.085Z,98109.86
2018-02-27T00:54:34.714Z,98110.71
2018-02-27T00:55:06.337Z,98112.41
2018-02-27T00:55:37.972Z,98112.00
2018-02-27T00:56:09.648Z,98111.61
2018-02-27T00:56:41.313Z,98112.45
2018-02-27T00:57:12.934Z,98107.41
2018-02-27T00:57:44.561Z,98104.05
2018-02-27T00:58:16.186Z,98112.55
2018-02-27T00:58:47.809Z,98112.55
2018-02-27T00:59:19.434Z,98108.30
2018-02-27T00:59:51.058Z,98109.20
2018-02-27T01:00:22.686Z,98108.38
2018-02-27T01:00:54.315Z,98108.80
2018-02-27T01:01:25.981Z,98106.69
2018-02-27T01:01:57.609Z,98107.53
2018-02-27T01:02:29.247Z,98106.73
2018-02-27T01:03:00.878Z,98105.03
2018-02-27T01:03:32.506Z,98107.62
2018-02-27T01:04:04.190Z,98110.59
2018-02-27T01:04:35.813Z,98105.50
2018-02-27T01:05:07.442Z,98108.09
2018-02-27T01:05:39.065Z,98107.24
2018-02-27T01:06:10.686Z,98097.91
2018-02-27T01:06:42.310Z,98098.28
2018-02-27T01:07:13.938Z,98107.16
2018-02-27T01:07:45.561Z,98105.88
2018-02-27T01:08:17.182Z,98107.97
2018-02-27T01:08:48.810Z,98097.34
2018-02-27T01:09:20.482Z,98101.17
2018-02-27T01:09:52.110Z,98106.22
2018-02-27T01:10:23.738Z,98104.05
2018-02-27T01:10:55.367Z,98105.71
2018-02-27T01:11:26.994Z,98096.78
2018-02-27T01:11:58.658Z,98104.47
2018-02-27T01:12:30.282Z,98100.19
2018-02-27T01:13:01.909Z,98104.81
2018-02-27T01:13:33.534Z,98105.19
2018-02-27T01:14:05.162Z,98096.22
2018-02-27T01:14:36.787Z,98097.50
2018-02-27T01:15:08.422Z,98098.25
2018-02-27T01:15:40.050Z,98101.19
2018-02-27T01:16:11.679Z,98101.56
2018-02-27T01:16:43.307Z,98097.69
2018-02-27T01:17:14.974Z,98094.29
2018-02-27T01:17:46.607Z,98095.94
2018-02-27T01:18:18.233Z,98091.22
2018-02-27T01:18:49.898Z,98098.86
2018-02-27T01:19:21.522Z,98094.98
2018-02-27T01:19:53.151Z,98088.54
2018-02-27T01:20:24.817Z,98091.48
2018-02-27T01:20:56.442Z,98098.27
2018-02-27T01:21:28.071Z,98096.09
2018-02-27T01:21:59.695Z,98090.52
2018-02-27T01:22:31.318Z,98086.59
2018-02-27T01:23:02.943Z,98090.00
2018-02-27T01:23:34.615Z,98083.52
2018-02-27T01:24:06.246Z,98088.09
2018-02-27T01:24:37.870Z,98090.55
2018-02-27T01:25:09.554Z,98085.43
2018-02-27T01:25:41.186Z,98089.58
2018-02-27T01:26:12.821Z,98090.02
2018-02-27T01:26:44.455Z,98088.30
2018-02-27T01:27:16.078Z,98091.66
2018-02-27T01:27:47.701Z,98089.42
2018-02-27T01:28:19.330Z,98091.93
2018-02-27T01:28:50.954Z,98086.39
2018-02-27T01:29:22.578Z,98082.94
2018-02-27T01:29:54.206Z,98085.42
2018-02-27T01:30:25.874Z,98085.48
2018-02-27T01:30:57.543Z,98084.56
2018-02-27T01:31:29.166Z,98082.82
2018-02-27T01:32:00.798Z,98083.23
2018-02-27T01:32:32.421Z,98085.79
2018-02-27T01:33:04.046Z,98080.16
2018-02-27T01:33:35.674Z,98077.19
2018-02-27T01:34:07.302Z,98081.90
2018-02-27T01:34:38.931Z,98086.64
2018-02-27T01:35:10.562Z,98090.84
2018-02-27T01:35:42.249Z,98083.98
2018-02-27T01:36:13.880Z,98083.98
2018-02-27T01:36:45.519Z,98081.44
2018-02-27T01:37:17.146Z,98082.64
2018-02-27T01:37:48.769Z,98084.89
2018-02-27T01:38:20.394Z,98081.96
2018-02-27T01:38:52.021Z,98076.00
2018-02-27T01:39:23.646Z,98086.22
2018-02-27T01:39:55.270Z,98082.87
2018-02-27T01:40:26.894Z,98075.20
2018-02-27T01:40:58.572Z,98073.14
2018-02-27T01:41:30.197Z,98077.83
2018-02-27T01:42:01.827Z,98080.44
2018-02-27T01:42:33.458Z,98074.84
2018-02-27T01:43:05.083Z,98077.89
2018-02-27T01:43:36.710Z,98074.00
2018-02-27T01:44:08.363Z,98070.64
2018-02-27T01:44:39.996Z,98076.23
2018-02-27T01:45:11.627Z,98070.38
2018-02-27T01:45:43.252Z,98070.81
2018-02-27T01:46:14.925Z,98071.62
2018-02-27T01:46:46.555Z,98069.55
2018-02-27T01:47:18.181Z,98076.88
2018-02-27T01:47:49.810Z,98068.74
2018-02-27T01:48:21.442Z,98068.73
2018-02-27T01:48:53.067Z,98072.14
2018-02-27T01:49:24.690Z,98076.03
2018-02-27T01:49:56.314Z,98074.84
2018-02-27T01:50:27.942Z,98068.95
2018-02-27T01:50:59.569Z,98070.23
2018-02-27T01:51:31.202Z,98067.30
2018-02-27T01:52:02.825Z,98067.73
2018-02-27T01:52:34.453Z,98072.08
2018-02-27T01:53:06.077Z,98069.97
2018-02-27T01:53:37.697Z,98065.70
2018-02-27T01:54:09.322Z,98063.25
2018-02-27T01:54:40.956Z,98067.52
2018-02-27T01:55:12.577Z,98075.59
2018-02-27T01:55:44.214Z,98066.30
2018-02-27T01:56:15.838Z,98073.95
2018-02-27T01:56:47.505Z,98071.86
2018-02-27T01:57:19.126Z,98073.15
2018-02-27T01:57:50.751Z,98073.23
2018-02-27T01:58:22.373Z,98075.80
2018-02-27T01:58:54.002Z,98068.58
2018-02-27T01:59:25.625Z,98076.24
2018-02-27T01:59:57.249Z,98075.44
2018-02-27T02:00:28.873Z,98073.73
2018-02-27T02:01:00.498Z,98070.80
2018-02-27T02:01:32.127Z,98080.59
2018-02-27T02:02:03.789Z,98075.06
2018-02-27T02:02:35.410Z,98076.77
2018-02-27T02:03:07.098Z,98072.98
2018-02-27T02:03:38.722Z,98078.55
2018-02-27T02:04:10.346Z,98074.73
2018-02-27T02:04:41.978Z,98065.47
2018-02-27T02:05:13.606Z,98075.72
2018-02-27T02:05:45.230Z,98072.75
2018-02-27T02:06:16.862Z,98076.62
2018-02-27T02:06:48.590Z,98068.13
2018-02-27T02:07:20.218Z,98068.59
2018-02-27T02:07:51.837Z,98071.99
2018-02-27T02:08:23.461Z,98063.07
2018-02-27T02:08:55.090Z,98072.47
2018-02-27T02:09:26.718Z,98066.14
2018-02-27T02:09:58.350Z,98067.46
2018-02-27T02:10:29.979Z,98069.58
2018-02-27T02:11:01.603Z,98068.73
2018-02-27T02:11:33.275Z,98070.06
2018-02-27T02:12:05.004Z,98069.72
2018-02-27T02:12:36.635Z,98069.30
2018-02-27T02:13:08.261Z,98065.09
2018-02-27T02:13:39.882Z,98065.10
2018-02-27T02:14:11.546Z,98063.48
2018-02-27T02:14:43.170Z,98063.88
2018-02-27T02:15:14.795Z,98064.76
2018-02-27T02:15:46.417Z,98069.81
2018-02-27T02:16:18.056Z,98064.72
2018-02-27T02:16:49.742Z,98067.27
2018-02-27T02:17:21.367Z,98063.87
2018-02-27T02:17:52.994Z,98062.22
2018-02-27T02:18:24.622Z,98060.94
2018-02-27T02:18:56.258Z,98061.83
2018-02-27T02:19:27.881Z,98056.40
2018-02-27T02:19:59.506Z,98058.06
2018-02-27T02:20:31.131Z,98059.80
2018-02-27T02:21:02.754Z,98058.90
2018-02-27T02:21:34.378Z,98056.35
2018-02-27T02:22:06.046Z,98058.02
2018-02-27T02:22:37.701Z,98057.58
2018-02-27T02:23:09.326Z,98061.80
2018-02-27T02:23:40.950Z,98058.44
2018-02-27T02:24:12.570Z,98056.35
2018-02-27T02:24:44.193Z,98058.44
2018-02-27T02:25:15.866Z,98059.33
2018-02-27T02:25:47.491Z,98058.05
2018-02-27T02:26:19.118Z,98055.47
2018-02-27T02:26:50.747Z,98062.25
2018-02-27T02:27:22.377Z,98052.92
2018-02-27T02:27:54.010Z,98053.77
2018-02-27T02:28:25.637Z,98058.43
2018-02-27T02:28:57.266Z,98056.27
2018-02-27T02:29:28.895Z,98055.41
2018-02-27T02:30:00.523Z,98053.24
2018-02-27T02:30:32.210Z,98054.09
2018-02-27T02:31:03.838Z,98058.30
2018-02-27T02:31:35.462Z,98053.59
2018-02-27T02:32:07.086Z,98049.33
2018-02-27T02:32:38.709Z,98048.02
2018-02-27T02:33:10.338Z,98047.53
2018-02-27T02:33:41.971Z,98046.64
2018-02-27T02:34:13.604Z,98043.66
2018-02-27T02:34:45.236Z,98046.12
2018-02-27T02:35:16.863Z,98047.34
2018-02-27T02:35:48.496Z,98044.69
2018-02-27T02:36:20.122Z,98049.33
2018-02-27T02:36:51.745Z,98046.73
2018-02-27T02:37:23.379Z,98044.18
2018-02-27T02:37:55.010Z,98041.16
2018-02-27T02:38:26.639Z,98038.97
2018-02-27T02:38:58.268Z,98043.56
2018-02-27T02:39:29.955Z,98044.78
2018-02-27T02:40:01.578Z,98040.03
2018-02-27T02:40:33.210Z,98039.55
2018-02-27T02:41:04.834Z,98043.23
2018-02-27T02:41:36.495Z,98034.23
2018-02-27T02:42:08.122Z,98038.34
2018-02-27T02:42:39.758Z,98036.69
2018-02-27T02:43:11.383Z,98034.03
2018-02-27T02:43:43.011Z,98033.27
2018-02-27T02:44:14.646Z,98034.92
2018-02-27T02:44:46.330Z,98040.72
2018-02-27T02:45:17.953Z,98034.28
2018-02-27T02:45:49.574Z,98036.83
2018-02-27T02:46:21.202Z,98038.84
2018-02-27T02:46:52.825Z,98037.94
2018-02-27T02:47:24.450Z,98033.15
2018-02-27T02:47:56.108Z,98037.82
2018-02-27T02:48:27.742Z,98034.00
2018-02-27T02:48:59.366Z,98033.58
2018-02-27T02:49:30.999Z,98032.92
2018-02-27T02:50:02.679Z,98037.47
2018-02-27T02:50:34.305Z,98035.72
2018-02-27T02:51:05.934Z,98032.36
2018-02-27T02:51:37.561Z,98031.53
2018-02-27T02:52:09.185Z,98030.73
2018-02-27T02:52:40.814Z,98032.55
2018-02-27T02:53:12.442Z,98040.28
2018-02-27T02:53:44.071Z,98036.80
2018-02-27T02:54:15.697Z,98033.14
2018-02-27T02:54:47.322Z,98027.61
2018-02-27T02:55:18.998Z,98036.55
2018-02-27T02:55:50.622Z,98036.94
2018-02-27T02:56:22.245Z,98037.82
2018-02-27T02:56:53.873Z,98035.33
2018-02-27T02:57:25.502Z,98030.66
2018-02-27T02:57:57.131Z,98036.98
2018-02-27T02:58:28.763Z,98039.16
2018-02-27T02:59:00.387Z,98035.33
2018-02-27T02:59:32.014Z,98035.27
2018-02-27T03:00:03.644Z,98036.24
2018-02-27T03:00:35.266Z,98039.20
2018-02-27T03:01:07.361Z,98035.38
2018-02-27T03:01:38.981Z,98034.17
2018-02-27T03:02:10.648Z,98038.90
2018-02-27T03:02:42.271Z,98038.91
2018-02-27T03:03:13.902Z,98035.61
2018-02-27T03:03:45.525Z,98035.72
2018-02-27T03:04:17.154Z,98036.16
2018-02-27T03:04:48.779Z,98041.66
2018-02-27T03:05:20.402Z,98033.12
2018-02-27T03:05:52.026Z,98033.22
2018-02-27T03:06:23.654Z,98032.80
2018-02-27T03:06:55.277Z,98034.06
2018-02-27T03:07:26.950Z,98031.47
2018-02-27T03:07:58.570Z,98031.05
2018-02-27T03:08:30.202Z,98033.59
2018-02-27T03:09:01.834Z,98028.06
2018-02-27T03:09:33.462Z,98027.22
2018-02-27T03:10:05.086Z,98028.49
2018-02-27T03:10:36.709Z,98030.62
2018-02-27T03:11:08.334Z,98026.53
2018-02-27T03:11:39.966Z,98030.03
2018-02-27T03:12:11.601Z,98014.73
2018-02-27T03:12:43.222Z,98025.90
2018-02-27T03:13:14.846Z,98021.31
2018-02-27T03:13:46.470Z,98017.86
2018-02-27T03:14:18.098Z,98021.70
2018-02-27T03:14:49.730Z,98020.41
2018-02-27T03:15:21.394Z,98017.88
2018-02-27T03:15:53.071Z,98021.79
2018-02-27T03:16:24.694Z,98018.47
2018-02-27T03:16:56.322Z,98013.84
2018-02-27T03:17:27.947Z,98017.66
2018-02-27T03:17:59.574Z,98020.23
2018-02-27T03:18:31.198Z,98018.10
2018-02-27T03:19:02.827Z,98017.30
2018-02-27T03:19:34.450Z,98016.45
2018-02-27T03:20:06.079Z,98018.99
2018-02-27T03:20:37.752Z,98016.02
2018-02-27T03:21:09.387Z,98012.25
2018-02-27T03:21:41.018Z,98015.66
2018-02-27T03:22:12.645Z,98015.27
2018-02-27T03:22:44.310Z,98016.97
2018-02-27T03:23:15.933Z,98016.18
2018-02-27T03:23:47.559Z,98014.11
2018-02-27T03:24:19.182Z,98009.43
2018-02-27T03:24:50.810Z,98017.13
2018-02-27T03:25:22.434Z,98014.58
2018-02-27T03:25:54.097Z,98015.42
2018-02-27T03:26:25.718Z,98013.77
2018-02-27T03:26:57.347Z,98013.78
2018-02-27T03:27:28.970Z,98012.98
2018-02-27T03:28:00.642Z,98008.77
2018-02-27T03:28:32.274Z,98010.00
2018-02-27T03:29:03.906Z,98008.82
2018-02-27T03:29:35.541Z,98009.68
2018-02-27T03:30:07.178Z,98009.72
2018-02-27T03:30:38.807Z,98013.59
2018-02-27T03:31:10.439Z,98009.30
2018-02-27T03:31:42.094Z,98009.30
2018-02-27T03:32:13.722Z,98008.92
2018-02-27T03:32:45.346Z,98009.81
2018-02-27T03:33:16.978Z,98015.72
2018-02-27T03:33:48.602Z,98017.47
2018-02-27T03:34:20.226Z,98011.53
2018-02-27T03:34:51.851Z,98008.55
2018-02-27T03:35:23.475Z,98009.81
2018-02-27T03:35:55.101Z,98003.87
2018-02-27T03:36:26.730Z,98005.61
2018-02-27T03:36:58.359Z,98007.74
2018-02-27T03:37:30.030Z,98008.17
2018-02-27T03:38:01.651Z,98005.23
2018-02-27T03:38:33.278Z,98005.62
2018-02-27T03:39:04.902Z,97998.86
2018-02-27T03:39:36.532Z,97995.47
2018-02-27T03:40:08.166Z,97995.05
2018-02-27T03:40:39.794Z,97991.22
2018-02-27T03:41:11.418Z,97997.17
2018-02-27T03:41:43.086Z,97992.55
2018-02-27T03:42:14.718Z,97995.43
2018-02-27T03:42:46.375Z,97993.73
2018-02-27T03:43:18.042Z,97994.48
2018-02-27T03:43:49.666Z,97994.90
2018-02-27T03:44:21.302Z,97993.58
2018-02-27T03:44:52.926Z,97992.72
2018-02-27T03:45:24.554Z,97999.09
2018-02-27T03:45:56.179Z,97997.45
2018-02-27T03:46:27.810Z,98000.42
2018-02-27T03:46:59.447Z,97997.02
2018-02-27T03:47:31.078Z,97997.83
2018-02-27T03:48:02.722Z,97995.27
2018-02-27T03:48:34.399Z,97992.30
2018-02-27T03:49:06.702Z,97994.80
2018-02-27T03:49:38.325Z,97996.40
2018-02-27T03:50:09.992Z,97988.75
2018-02-27T03:50:41.622Z,97988.55
2018-02-27T03:51:13.246Z,97988.34
2018-02-27T03:51:44.875Z,97990.36
2018-02-27T03:52:16.498Z,97988.53
2018-02-27T03:52:48.122Z,97982.48
2018-02-27T03:53:19.754Z,97984.90
2018-02-27T03:53:51.520Z,97984.80
2018-02-27T03:54:23.145Z,97985.28
2018-02-27T03:54:54.770Z,97990.42
2018-02-27T03:55:26.394Z,97980.65
2018-02-27T03:55:58.058Z,97985.32
2018-02-27T03:56:29.690Z,97987.41
2018-02-27T03:57:01.318Z,97995.11
2018-02-27T03:57:32.943Z,97990.81
2018-02-27T03:58:04.574Z,97987.41
2018-02-27T03:58:36.201Z,97989.89
2018-02-27T03:59:07.826Z,97984.30
2018-02-27T03:59:39.454Z,97986.02
2018-02-27T04:00:11.083Z,97990.58
2018-02-27T04:00:42.757Z,97989.63
2018-02-27T04:01:14.433Z,97985.30
2018-02-27T04:01:46.061Z,97989.08
2018-02-27T04:02:17.690Z,97983.86
2018-02-27T04:02:49.314Z,97987.45
2018-02-27T04:03:20.942Z,97990.61
2018-02-27T04:03:52.566Z,97986.29
2018-02-27T04:04:24.198Z,97987.88
2018-02-27T04:04:55.831Z,97985.59
2018-02-27T04:05:27.457Z,97986.17
2018-02-27T04:05:59.081Z,97989.01
2018-02-27T04:06:30.750Z,97988.59
2018-02-27T04:07:02.374Z,97983.49
2018-02-27T04:07:33.998Z,97992.54
2018-02-27T04:08:05.625Z,97985.69
2018-02-27T04:08:37.253Z,97990.84
2018-02-27T04:09:08.922Z,97985.73
2018-02-27T04:09:40.546Z,97991.27
2018-02-27T04:10:12.174Z,97993.09
2018-02-27T04:10:43.798Z,97990.49
2018-02-27T04:11:15.693Z,97997.36
2018-02-27T04:11:47.322Z,97993.52
2018-02-27T04:12:18.951Z,98000.77
2018-02-27T04:12:50.579Z,97998.58
2018-02-27T04:13:22.201Z,97992.25
2018-02-27T04:13:53.826Z,97994.38
2018-02-27T04:14:25.467Z,97997.41
2018-02-27T04:14:57.094Z,97995.76
2018-02-27T04:15:28.718Z,97995.34
2018-02-27T04:16:00.341Z,97999.17
2018-02-27T04:16:32.010Z,97999.17
2018-02-27T04:17:03.634Z,98000.44
2018-02-27T04:17:35.257Z,97998.88
2018-02-27T04:18:06.931Z,97997.59
2018-02-27T04:18:38.562Z,97995.52
2018-02-27T04:19:10.191Z,97989.61
2018-02-27T04:19:41.822Z,97991.33
2018-02-27T04:20:13.446Z,97996.91
2018-02-27T04:20:45.069Z,97992.27
2018-02-27T04:21:16.693Z,97997.75
2018-02-27T04:21:48.322Z,97989.78
2018-02-27T04:22:19.951Z,97988.09
2018-02-27T04:22:51.574Z,97991.13
2018-02-27T04:23:23.253Z,97990.33
2018-02-27T04:23:54.874Z,97993.36
2018-02-27T04:24:26.498Z,97989.16
2018-02-27T04:24:58.123Z,97995.17
2018-02-27T04:25:29.746Z,97991.83
2018-02-27T04:26:01.370Z,97994.05
2018-02-27T04:26:32.998Z,97996.23
2018-02-27T04:27:04.630Z,97994.16
2018-02-27T04:27:36.258Z,97992.84
2018-02-27T04:28:07.881Z,97994.95
2018-02-27T04:28:39.661Z,97996.72
2018-02-27T04:29:11.290Z,97989.95
2018-02-27T04:29:42.922Z,97990.41
2018-02-27T04:30:14.558Z,97992.95
2018-02-27T04:30:46.190Z,97989.20
2018-02-27T04:31:17.814Z,97990.94
2018-02-27T04:31:49.439Z,97995.20
2018-02-27T04:32:21.071Z,97985.98
2018-02-27T04:32:52.702Z,97993.64
2018-02-27T04:33:24.330Z,97994.55
2018-02-27T04:33:55.994Z,97991.16
2018-02-27T04:34:27.627Z,97987.05
2018-02-27T04:34:59.258Z,97990.88
2018-02-27T04:35:30.886Z,97992.58
2018-02-27T04:36:02.510Z,97987.95
2018-02-27T04:36:34.134Z,97990.13
2018-02-27T04:37:05.761Z,97988.91
2018-02-27T04:37:37.450Z,97999.95
2018-02-27T04:38:09.083Z,97996.59
2018-02-27T04:38:40.710Z,97992.39
2018-02-27T04:39:12.337Z,97994.53
2018-02-27T04:39:43.967Z,97995.38
2018-02-27T04:40:15.598Z,97990.32
2018-02-27T04:40:47.222Z,97990.75
2018-02-27T04:41:18.894Z,97993.34
2018-02-27T04:41:50.517Z,97991.27
2018-02-27T04:42:22.142Z,97989.16
2018-02-27T04:42:53.770Z,97987.88
2018-02-27T04:43:25.404Z,97987.08
2018-02-27T04:43:57.029Z,97991.37
2018-02-27T04:44:28.649Z,97986.73
2018-02-27T04:45:00.284Z,97987.20
2018-02-27T04:45:31.905Z,97987.64
2018-02-27T04:46:03.579Z,97989.75
2018-02-27T04:46:35.208Z,97988.06
2018-02-27T04:47:06.830Z,97987.20
2018-02-27T04:47:38.458Z,97994.02
2018-02-27T04:48:10.081Z,97991.47
2018-02-27T04:48:41.706Z,97987.69
2018-02-27T04:49:13.335Z,97992.40
2018-02-27T04:49:44.967Z,97986.45
2018-02-27T04:50:16.593Z,97990.28
2018-02-27T04:50:48.272Z,97988.16
2018-02-27T04:51:19.897Z,97985.66
2018-02-27T04:51:51.526Z,97992.08
2018-02-27T04:52:23.158Z,97988.30
2018-02-27T04:52:54.781Z,97981.55
2018-02-27T04:53:26.405Z,97987.88
2018-02-27T04:53:58.034Z,97985.75
2018-02-27T04:54:29.654Z,97986.17
2018-02-27T04:55:01.279Z,97982.39
2018-02-27T04:55:32.910Z,97993.02
2018-02-27T04:56:04.582Z,97987.91
2018-02-27T04:56:36.210Z,97982.82
2018-02-27T04:57:07.833Z,97984.09
2018-02-27T04:57:39.461Z,97984.09
2018-02-27T04:58:11.090Z,97979.85
2018-02-27T04:58:42.714Z,97984.52
2018-02-27T04:59:14.338Z,97984.90
2018-02-27T04:59:45.962Z,97985.33
2018-02-27T05:00:17.586Z,97981.92
2018-02-27T05:00:49.210Z,97987.88
2018-02-27T05:01:20.860Z,97987.02
2018-02-27T05:01:52.486Z,97987.45
2018-02-27T05:02:24.167Z,97983.63
2018-02-27T05:02:55.795Z,97984.47
2018-02-27T05:03:27.427Z,97984.09
2018-02-27T05:03:59.097Z,97984.91
2018-02-27T05:04:30.730Z,97978.57
2018-02-27T05:05:02.353Z,97982.86
2018-02-27T05:05:34.010Z,97983.71
2018-02-27T05:06:05.641Z,97986.69
2018-02-27T05:06:37.270Z,97981.59
2018-02-27T05:07:09.018Z,97985.84
2018-02-27T05:07:40.689Z,97986.27
2018-02-27T05:08:12.323Z,97987.58
2018-02-27T05:08:43.951Z,97990.13
2018-02-27T05:09:15.586Z,97989.32
2018-02-27T05:09:47.223Z,97984.67
2018-02-27T05:10:18.853Z,97984.28
2018-02-27T05:10:50.482Z,97985.98
2018-02-27T05:11:22.106Z,97980.08
2018-02-27T05:11:53.730Z,97978.00
2018-02-27T05:12:25.362Z,97975.03
2018-02-27T05:12:57.030Z,97975.03
2018-02-27T05:13:28.657Z,97972.53
2018-02-27T05:14:00.286Z,97981.44
2018-02-27T05:14:31.914Z,97975.54
2018-02-27T05:15:03.539Z,97976.39
2018-02-27T05:15:35.161Z,97976.81
2018-02-27T05:16:06.854Z,97973.85
2018-02-27T05:16:38.531Z,97977.67
2018-02-27T05:17:10.163Z,97974.73
2018-02-27T05:17:41.796Z,97975.59
2018-02-27T05:18:13.470Z,97974.70
2018-02-27T05:18:45.106Z,97975.55
2018-02-27T05:19:16.762Z,97972.57
2018-02-27T05:19:48.390Z,97973.80
2018-02-27T05:20:20.014Z,97977.12
2018-02-27T05:20:51.638Z,97975.41
2018-02-27T05:21:23.265Z,97978.75
2018-02-27T05:21:54.894Z,97971.45
2018-02-27T05:22:26.557Z,97972.63
2018-02-27T05:22:58.189Z,97980.18
2018-02-27T05:23:29.819Z,97971.22
2018-02-27T05:24:01.445Z,97977.06
2018-02-27T05:24:33.114Z,97977.45
2018-02-27T05:25:04.746Z,97974.37
2018-02-27T05:25:36.369Z,97973.47
2018-02-27T05:26:07.994Z,97975.97
2018-02-27T05:26:39.618Z,97976.21
2018-02-27T05:27:11.290Z,97972.75
2018-02-27T05:27:42.918Z,97973.56
2018-02-27T05:28:14.541Z,97975.63
2018-02-27T05:28:46.218Z,97975.57
2018-02-27T05:29:17.842Z,97973.45
2018-02-27T05:29:49.466Z,97973.40
2018-02-27T05:30:21.091Z,97977.18
2018-02-27T05:30:52.714Z,97974.25
2018-02-27T05:31:24.345Z,97973.83
2018-02-27T05:31:55.970Z,97977.92
2018-02-27T05:32:27.603Z,97982.64
2018-02-27T05:32:59.230Z,97975.42
2018-02-27T05:33:30.853Z,97976.27
2018-02-27T05:34:02.517Z,97973.62
2018-02-27T05:34:34.142Z,97976.13
2018-02-27T05:35:05.767Z,97981.11
2018-02-27T05:35:37.393Z,97974.30
2018-02-27T05:36:09.018Z,97968.37
2018-02-27T05:36:40.647Z,97977.28
2018-02-27T05:37:12.270Z,97975.96
2018-02-27T05:37:43.893Z,97973.84
2018-02-27T05:38:15.523Z,97972.55
2018-02-27T05:38:47.151Z,97976.78
2018-02-27T05:39:18.822Z,97978.86
2018-02-27T05:39:50.462Z,97976.67
2018-02-27T05:40:22.090Z,97976.68
2018-02-27T05:40:53.722Z,97969.34
2018-02-27T05:41:25.346Z,97975.30
2018-02-27T05:41:56.974Z,97974.76
2018-02-27T05:42:28.602Z,97977.79
2018-02-27T05:43:00.226Z,97978.11
2018-02-27T05:43:31.854Z,97979.39
2018-02-27T05:44:03.525Z,97976.39
2018-02-27T05:44:35.150Z,97977.73
2018-02-27T05:45:06.774Z,97974.01
2018-02-27T05:45:38.399Z,97981.63
2018-02-27T05:46:10.022Z,97988.05
2018-02-27T05:46:41.650Z,97976.56
2018-02-27T05:47:13.278Z,97979.13
2018-02-27T05:47:44.950Z,97977.31
2018-02-27T05:48:16.587Z,97973.05
2018-02-27T05:48:48.219Z,97976.03
2018-02-27T05:49:19.850Z,97978.97
2018-02-27T05:49:51.514Z,97979.80
2018-02-27T05:50:23.146Z,97980.98
2018-02-27T05:50:54.779Z,97982.66
2018-02-27T05:51:26.410Z,97976.70
2018-02-27T05:51:58.049Z,97983.94
2018-02-27T05:52:29.674Z,97977.56
2018-02-27T05:53:01.302Z,97979.95
2018-02-27T05:53:32.934Z,97982.92
2018-02-27T05:54:04.563Z,97980.86
2018-02-27T05:54:36.198Z,97986.02
2018-02-27T05:55:07.861Z,97982.93
2018-02-27T05:55:39.486Z,97988.35
2018-02-27T05:56:11.110Z,97983.77
2018-02-27T05:56:42.738Z,97982.88
2018-02-27T05:57:14.361Z,97987.06
2018-02-27T05:57:45.986Z,97988.45
2018-02-27T05:58:17.658Z,97985.47
2018-02-27T05:58:49.342Z,97982.50
2018-02-27T05:59:20.977Z,97989.25
2018-02-27T05:59:52.658Z,97986.27
2018-02-27T06:00:24.261Z,97994.66
2018-02-27T06:00:55.932Z,97988.29
2018-02-27T06:01:27.558Z,97992.53
2018-02-27T06:01:59.186Z,97989.63
2018-02-27T06:02:30.818Z,97988.77
2018-02-27T06:03:02.446Z,97985.67
2018-02-27T06:03:34.069Z,97987.43
2018-02-27T06:04:05.694Z,97991.33
2018-02-27T06:04:37.318Z,97987.91
2018-02-27T06:05:08.945Z,97987.97
2018-02-27T06:05:40.601Z,97989.67
2018-02-27T06:06:12.265Z,97990.58
2018-02-27T06:06:43.899Z,97991.81
2018-02-27T06:07:15.521Z,97995.14
2018-02-27T06:07:47.153Z,97997.70
2018-02-27T06:08:18.781Z,97995.69
2018-02-27T06:08:50.411Z,97993.19
2018-02-27T06:09:22.038Z,97994.36
2018-02-27T06:09:53.666Z,97989.73
2018-02-27T06:10:25.334Z,97987.66
2018-02-27T06:10:56.964Z,97991.86
2018-02-27T06:11:28.590Z,97987.23